KHDN/HDN METAR and TAF weather

Enter ICAO airport designator
Station Type Date Time Source
KHDN METAR 2019/04/24 15:56 UTC NOAA

KHDN 241556Z AUTO 29005KT 10SM CLR 11/02 A3016 RMK AO2 SLP173 T01110017


Station Type Date Time Source
KHDN Decoded METAR 2019/04/24 15:56 UTC NOAA

Hayden, Yampa Valley Airport, CO, United States (KHDN) 40-29N 107-13W
Apr 24, 2019 - 11:56 AM EDT / 2019.04.24 1556 UTC
Wind: from the WNW (290 degrees) at 6 MPH (5 KT):0
Visibility: 10 mile(s):0
Sky conditions: clear
Temperature: 52.0 F (11.1 C)
Dew Point: 35.1 F (1.7 C)
Relative Humidity: 52%
Pressure (altimeter): 30.16 in. Hg (1021 hPa)
ob: KHDN 241556Z AUTO 29005KT 10SM CLR 11/02 A3016 RMK AO2 SLP173 T01110017
cycle: 16

Station Type Date Time Source
KHDN TAF 2019/04/24 12:24 UTC NOAA

TAF KHDN 241121Z 2412/2512 08006KT P6SM BKN070 OVC090
FM241900 29008KT P6SM FEW250
FM250200 29008KT P6SM BKN080
FM250900 VRB03KT P6SM FEW250

Example: see airport list